Time;durP1;ratioP1;P1;durP2;ratioP2;P2;SDS_P1;SDS_P2;PMS_P1;PMS_P2;Temp;Humidity;BMP_temperature;BMP_pressure;BME280_temperature;BME280_humidity;BME280_pressure;Samples;Min_cycle;Max_cycle;Signal;HPM_P1;HPM_P2
2022/11/01 00:00:27;;;;;;;6.87;4.27;;;12.30;99.90;;;;;;5112369;28;20454;-74
2022/11/01 00:02:54;;;;;;;7.63;4.40;;;12.30;99.90;;;;;;5112638;28;20448;-73
2022/11/01 00:05:20;;;;;;;5.93;4.30;;;12.40;99.90;;;;;;5111919;28;20846;-73
2022/11/01 00:07:47;;;;;;;5.70;4.03;;;12.30;99.90;;;;;;5112480;28;20440;-73
2022/11/01 00:10:14;;;;;;;8.27;4.23;;;12.40;99.90;;;;;;5111721;28;20479;-74
2022/11/01 00:12:43;;;;;;;9.13;4.53;;;12.50;99.90;;;;;;5112556;28;20448;-74
2022/11/01 00:15:11;;;;;;;6.43;4.07;;;12.50;99.90;;;;;;5112008;28;20491;-73
2022/11/01 00:17:38;;;;;;;4.37;3.30;;;12.50;99.90;;;;;;5112065;28;20446;-74
2022/11/01 00:20:06;;;;;;;5.50;3.97;;;12.50;99.90;;;;;;5111812;28;20452;-74
2022/11/01 00:22:32;;;;;;;5.30;3.93;;;12.40;99.90;;;;;;5112346;28;20447;-74
2022/11/01 00:24:59;;;;;;;7.13;4.50;;;12.50;99.90;;;;;;5112749;28;20448;-74
2022/11/01 00:27:26;;;;;;;7.20;4.80;;;12.50;99.90;;;;;;5112120;28;20456;-74
2022/11/01 00:29:53;;;;;;;3.83;3.40;;;12.50;99.90;;;;;;5112370;28;20837;-74
2022/11/01 00:32:21;;;;;;;6.37;4.60;;;12.60;99.90;;;;;;5111630;28;20444;-74
2022/11/01 00:34:48;;;;;;;5.67;3.73;;;12.60;99.90;;;;;;5111638;28;20451;-74
2022/11/01 00:37:15;;;;;;;4.17;3.20;;;12.60;99.90;;;;;;5111387;28;20469;-74
2022/11/01 00:39:41;;;;;;;6.60;4.70;;;12.70;99.90;;;;;;5111568;28;20460;-74
2022/11/01 00:42:08;;;;;;;7.33;4.60;;;12.50;99.90;;;;;;5111256;28;20942;-73
2022/11/01 00:44:35;;;;;;;4.80;3.67;;;12.50;99.90;;;;;;5112240;28;20444;-73
2022/11/01 00:47:02;;;;;;;7.90;3.80;;;12.60;99.90;;;;;;5111399;28;20455;-73
2022/11/01 00:49:30;;;;;;;3.77;3.13;;;12.70;99.90;;;;;;5111399;28;20514;-73
2022/11/01 00:51:57;;;;;;;10.47;4.00;;;12.70;99.90;;;;;;5112067;28;20451;-74
2022/11/01 00:54:23;;;;;;;5.47;4.27;;;12.70;99.90;;;;;;5111402;28;20461;-74
2022/11/01 00:56:50;;;;;;;5.27;3.00;;;12.70;99.90;;;;;;5111397;28;20451;-74
2022/11/01 00:59:17;;;;;;;5.60;3.20;;;12.80;99.90;;;;;;5110686;28;20974;-74
2022/11/01 01:01:44;;;;;;;11.77;4.10;;;12.80;99.90;;;;;;5111905;28;20440;-73
2022/11/01 01:04:10;;;;;;;4.70;3.53;;;12.90;99.90;;;;;;5111384;28;20454;-73
2022/11/01 01:06:38;;;;;;;9.30;3.80;;;13.00;99.90;;;;;;5111664;28;20448;-73
2022/11/01 01:09:05;;;;;;;8.10;4.37;;;13.00;99.90;;;;;;5110684;28;20490;-74
2022/11/01 01:11:32;;;;;;;5.53;4.23;;;13.10;99.90;;;;;;5111501;28;20943;-74
2022/11/01 01:13:59;;;;;;;6.60;5.47;;;13.00;99.90;;;;;;5112033;28;20450;-73
2022/11/01 01:16:26;;;;;;;5.43;3.33;;;13.10;99.90;;;;;;5111839;28;20836;-73
2022/11/01 01:18:53;;;;;;;6.10;3.07;;;13.10;99.90;;;;;;5111065;28;20448;-73
2022/11/01 01:21:20;;;;;;;6.20;4.13;;;13.10;99.90;;;;;;5110978;28;20814;-74
2022/11/01 01:23:50;;;;;;;5.80;4.60;;;13.10;99.90;;;;;;5111732;28;20440;-74
2022/11/01 01:26:17;;;;;;;5.43;3.67;;;13.10;99.90;;;;;;5110907;28;20927;-73
2022/11/01 01:28:43;;;;;;;8.93;3.93;;;13.10;99.90;;;;;;5111245;28;20440;-74
2022/11/01 01:31:11;;;;;;;5.80;3.40;;;13.10;99.90;;;;;;5111079;28;20479;-73
2022/11/01 01:33:38;;;;;;;3.80;3.37;;;13.10;99.90;;;;;;5111674;28;20455;-74
2022/11/01 01:36:06;;;;;;;4.73;3.90;;;13.00;99.90;;;;;;5111080;28;20470;-73
2022/11/01 01:38:33;;;;;;;4.60;3.87;;;13.00;99.90;;;;;;5111192;28;20444;-73
2022/11/01 01:43:42;;;;;;;5.43;4.07;;;13.00;99.90;;;;;;5111007;28;20436;-73
2022/11/01 01:46:10;;;;;;;7.13;3.83;;;12.90;99.90;;;;;;5111538;28;20475;-73
2022/11/01 01:48:39;;;;;;;7.93;3.73;;;12.90;99.90;;;;;;5115076;28;20455;-74
2022/11/01 01:51:09;;;;;;;16.07;3.73;;;12.90;99.90;;;;;;5114254;28;20499;-73
2022/11/01 01:53:40;;;;;;;11.93;4.47;;;12.90;99.90;;;;;;5115213;28;20439;-74
2022/11/01 01:56:12;;;;;;;9.90;3.83;;;12.90;99.90;;;;;;5115018;28;20444;-74
2022/11/01 01:58:42;;;;;;;4.20;3.80;;;12.90;99.90;;;;;;5114923;28;20440;-74
2022/11/01 02:01:09;;;;;;;13.87;4.37;;;13.00;99.90;;;;;;5114789;28;20451;-74
2022/11/01 02:03:37;;;;;;;6.90;3.60;;;13.00;99.90;;;;;;5114623;28;20447;-74
2022/11/01 02:06:09;;;;;;;8.90;3.90;;;13.00;99.90;;;;;;5114150;28;20444;-74
2022/11/01 02:08:39;;;;;;;9.40;3.90;;;13.00;99.90;;;;;;5114521;28;20443;-74
2022/11/01 02:11:08;;;;;;;4.03;3.40;;;13.00;99.90;;;;;;5114340;28;20566;-74
2022/11/01 02:13:36;;;;;;;3.73;3.17;;;13.00;99.90;;;;;;5102014;28;20458;-74
2022/11/01 02:16:19;;;;;;;10.13;3.90;;;13.00;99.90;;;;;;5113796;28;20935;-73
2022/11/01 02:18:49;;;;;;;3.77;2.83;;;13.00;99.90;;;;;;5114474;28;20493;-73
2022/11/01 02:21:52;;;;;;;5.70;3.30;;;13.00;99.90;;;;;;5114084;28;20816;-74
2022/11/01 02:24:50;;;;;;;5.23;2.97;;;13.00;99.90;;;;;;5114212;28;20440;-74
2022/11/01 02:27:24;;;;;;;5.80;3.50;;;13.00;99.90;;;;;;5113836;28;20444;-74
2022/11/01 02:30:11;;;;;;;6.97;4.00;;;13.00;99.90;;;;;;5114285;28;20471;-74
2022/11/01 02:32:53;;;;;;;8.43;5.43;;;13.10;99.90;;;;;;5114384;28;20937;-74
2022/11/01 02:35:24;;;;;;;7.63;3.33;;;13.10;99.90;;;;;;5113963;28;20446;-74
2022/11/01 02:37:55;;;;;;;5.00;3.23;;;13.00;99.90;;;;;;5114018;28;20463;-74
2022/11/01 02:40:29;;;;;;;5.50;4.00;;;13.10;99.90;;;;;;5113536;28;20939;-74
2022/11/01 02:43:02;;;;;;;4.33;3.43;;;13.10;99.90;;;;;;5114994;28;20448;-74
2022/11/01 02:45:34;;;;;;;3.67;3.37;;;13.10;99.90;;;;;;5114493;28;20462;-73
2022/11/01 02:48:04;;;;;;;5.10;3.17;;;13.10;99.90;;;;;;5113960;28;20444;-73
2022/11/01 02:50:37;;;;;;;6.30;3.27;;;13.10;99.90;;;;;;5114126;28;20491;-73
2022/11/01 02:53:04;;;;;;;6.13;3.70;;;13.10;99.90;;;;;;5113832;28;20446;-73
2022/11/01 02:55:32;;;;;;;5.07;3.50;;;13.10;99.90;;;;;;5114303;28;20879;-73
2022/11/01 02:58:01;;;;;;;7.13;4.07;;;13.10;99.90;;;;;;5112967;28;20497;-74
2022/11/01 03:00:30;;;;;;;6.10;3.63;;;13.20;99.90;;;;;;5113994;28;20452;-74
2022/11/01 03:03:06;;;;;;;6.50;3.00;;;13.10;99.90;;;;;;5113989;28;20444;-73
2022/11/01 03:05:40;;;;;;;4.90;2.73;;;13.10;99.90;;;;;;5101414;28;20444;-74
2022/11/01 03:08:09;;;;;;;4.87;3.10;;;13.10;99.90;;;;;;5112745;28;20446;-73
2022/11/01 03:10:45;;;;;;;6.60;2.80;;;13.10;99.90;;;;;;5113575;28;20480;-73
2022/11/01 03:13:27;;;;;;;9.07;3.23;;;13.10;99.90;;;;;;5113278;28;20454;-74
2022/11/01 03:16:03;;;;;;;4.80;2.90;;;13.10;99.90;;;;;;5113610;28;20451;-74
2022/11/01 03:18:35;;;;;;;5.30;3.43;;;13.10;99.90;;;;;;5113537;28;20446;-73
2022/11/01 03:21:14;;;;;;;4.20;2.90;;;13.10;99.90;;;;;;5112702;28;20447;-73
2022/11/01 03:23:46;;;;;;;4.73;3.97;;;13.00;99.90;;;;;;5113793;28;20578;-74
2022/11/01 03:26:15;;;;;;;3.00;2.40;;;13.00;99.90;;;;;;5112880;28;20440;-73
2022/11/01 03:28:44;;;;;;;4.43;3.50;;;13.10;99.90;;;;;;5113079;28;20440;-74
2022/11/01 03:31:13;;;;;;;5.40;2.80;;;13.20;99.90;;;;;;5112531;28;20506;-74
2022/11/01 03:33:45;;;;;;;3.20;2.80;;;13.20;99.90;;;;;;5113519;28;20470;-73
2022/11/01 03:36:16;;;;;;;5.23;3.70;;;13.10;99.90;;;;;;5112783;28;20440;-74
2022/11/01 03:38:48;;;;;;;5.40;3.47;;;13.10;99.90;;;;;;5112611;28;20942;-73
2022/11/01 03:41:17;;;;;;;2.90;2.37;;;13.00;99.90;;;;;;5112844;28;20443;-74
2022/11/01 03:43:45;;;;;;;3.43;3.10;;;13.00;99.90;;;;;;5112863;28;20450;-74
2022/11/01 03:46:15;;;;;;;4.63;2.90;;;13.10;99.90;;;;;;5112608;28;20953;-74
2022/11/01 03:48:43;;;;;;;9.07;4.17;;;13.00;99.90;;;;;;5112879;28;20444;-74
2022/11/01 03:51:10;;;;;;;7.00;3.43;;;13.00;99.90;;;;;;5112281;28;20483;-74
2022/11/01 03:53:37;;;;;;;4.87;2.90;;;13.00;99.90;;;;;;5113211;28;20462;-74
2022/11/01 03:56:04;;;;;;;4.30;3.40;;;13.00;99.90;;;;;;5112325;28;20451;-73
2022/11/01 03:58:41;;;;;;;5.80;4.20;;;13.10;99.90;;;;;;5112076;28;20922;-73
2022/11/01 04:01:08;;;;;;;6.33;3.37;;;13.10;99.90;;;;;;5112279;28;20448;-73
2022/11/01 04:03:36;;;;;;;8.03;2.77;;;13.10;99.90;;;;;;5112686;28;20447;-73
2022/11/01 04:06:05;;;;;;;5.93;3.83;;;13.10;99.90;;;;;;5112274;28;20452;-74
2022/11/01 04:08:33;;;;;;;5.30;3.10;;;13.10;99.90;;;;;;5111994;28;20531;-74
2022/11/01 04:11:00;;;;;;;4.47;3.57;;;13.10;99.90;;;;;;5112552;28;20834;-73
2022/11/01 04:13:27;;;;;;;4.60;3.93;;;13.10;99.90;;;;;;5112624;28;20451;-73
2022/11/01 04:21:35;;;;;;;4.23;2.87;;;13.20;99.90;;;;;;5029720;28;20440;-75
2022/11/01 04:24:02;;;;;;;5.90;3.20;;;13.40;99.90;;;;;;5090535;28;20460;-74
2022/11/01 04:26:29;;;;;;;3.67;3.00;;;13.40;99.90;;;;;;5110408;28;20946;-73
2022/11/01 04:28:59;;;;;;;3.30;2.87;;;13.40;99.90;;;;;;5110932;28;20440;-74
2022/11/01 04:31:28;;;;;;;7.20;4.83;;;13.40;99.90;;;;;;5117720;28;20479;-76
2022/11/01 04:33:56;;;;;;;3.60;3.00;;;13.40;99.90;;;;;;5118120;28;20447;-74
2022/11/01 04:36:23;;;;;;;4.90;3.37;;;13.30;99.90;;;;;;5110631;28;20444;-74
2022/11/01 04:38:52;;;;;;;4.90;3.13;;;13.30;99.90;;;;;;5107712;28;20509;-74
2022/11/01 04:41:21;;;;;;;11.50;3.03;;;13.40;99.90;;;;;;5111427;28;20450;-74
2022/11/01 04:43:48;;;;;;;4.13;2.40;;;13.30;99.90;;;;;;5110778;28;20459;-74
2022/11/01 04:46:15;;;;;;;8.10;3.43;;;13.30;99.90;;;;;;5110904;28;20474;-74
2022/11/01 04:48:42;;;;;;;3.43;2.50;;;13.20;99.90;;;;;;5110837;28;20456;-74
2022/11/01 04:51:10;;;;;;;6.17;3.33;;;13.20;99.90;;;;;;5070745;28;20477;-74
2022/11/01 04:53:38;;;;;;;3.60;2.70;;;13.30;99.90;;;;;;5071511;28;20473;-75
2022/11/01 04:56:08;;;;;;;4.23;2.53;;;13.40;99.90;;;;;;5070848;28;20445;-74
2022/11/01 04:58:36;;;;;;;5.70;2.80;;;13.50;99.90;;;;;;5070800;28;20991;-75
2022/11/01 05:01:05;;;;;;;4.73;2.50;;;13.60;99.90;;;;;;5070699;28;20449;-74
2022/11/01 05:03:33;;;;;;;7.43;3.37;;;13.80;99.90;;;;;;5070931;28;20454;-74
2022/11/01 05:06:00;;;;;;;5.53;2.83;;;13.80;99.90;;;;;;5071419;28;20465;-75
2022/11/01 05:08:27;;;;;;;5.67;3.00;;;13.90;99.90;;;;;;5070930;28;20446;-74
2022/11/01 05:10:56;;;;;;;6.77;3.23;;;13.90;99.90;;;;;;5071316;28;20489;-74
2022/11/01 05:13:24;;;;;;;3.87;2.20;;;14.00;99.90;;;;;;5070748;28;20453;-74
2022/11/01 05:15:51;;;;;;;3.20;2.20;;;14.30;99.90;;;;;;5071414;28;20461;-74
2022/11/01 05:18:17;;;;;;;3.70;2.20;;;14.30;94.50;;;;;;5069893;28;20917;-74
2022/11/01 05:20:44;;;;;;;3.00;2.30;;;14.30;99.90;;;;;;5070906;28;20468;-75
2022/11/01 05:23:11;;;;;;;2.40;1.93;;;14.40;92.10;;;;;;5073803;28;20445;-74
2022/11/01 05:25:38;;;;;;;3.23;2.63;;;14.40;61.40;;;;;;5075084;28;20450;-74
2022/11/01 05:28:06;;;;;;;3.00;2.03;;;14.40;48.70;;;;;;5073887;28;20879;-75
2022/11/01 05:30:36;;;;;;;2.97;2.07;;;14.40;66.90;;;;;;5074981;28;20481;-74
2022/11/01 05:33:04;;;;;;;3.40;2.07;;;14.40;59.50;;;;;;5074323;28;20460;-74
2022/11/01 05:35:32;;;;;;;3.87;1.60;;;14.40;96.30;;;;;;5068439;28;20465;-75
2022/11/01 05:37:59;;;;;;;1.37;1.20;;;14.50;57.70;;;;;;5074102;28;20445;-75
2022/11/01 05:40:26;;;;;;;1.73;1.03;;;15.20;1.00;;;;;;5074132;28;20949;-74
2022/11/01 05:42:53;;;;;;;1.33;0.90;;;15.40;99.90;;;;;;5074824;28;20445;-74
2022/11/01 05:45:20;;;;;;;1.83;1.10;;;15.80;99.90;;;;;;5074174;28;20456;-74
2022/11/01 05:47:48;;;;;;;1.63;1.03;;;15.90;99.90;;;;;;5074306;28;20461;-75
2022/11/01 05:50:16;;;;;;;1.83;1.40;;;15.70;1.00;;;;;;5099496;28;20475;-74
2022/11/01 05:52:43;;;;;;;2.97;1.03;;;15.60;1.00;;;;;;5114814;28;20475;-74
2022/11/01 05:55:10;;;;;;;3.30;1.40;;;15.40;1.00;;;;;;5114228;28;20458;-74
2022/11/01 05:57:37;;;;;;;2.10;1.03;;;15.30;36.00;;;;;;5114752;28;20549;-74
2022/11/01 06:00:06;;;;;;;1.87;1.33;;;15.20;97.10;;;;;;5113890;28;20831;-74
2022/11/01 06:02:33;;;;;;;1.80;1.23;;;;;;;;;;5125277;27;20461;-75
2022/11/01 06:05:01;;;;;;;1.30;1.13;;;;;;;;;;5118600;27;20485;-74
2022/11/01 06:07:28;;;;;;;4.57;1.70;;;;;;;;;;5113655;28;20440;-74
2022/11/01 06:09:56;;;;;;;2.30;1.43;;;;;;;;;;5114648;28;20455;-74
2022/11/01 06:12:26;;;;;;;1.50;1.00;;;;;;;;;;5114007;28;20966;-74
2022/11/01 06:14:53;;;;;;;3.80;1.30;;;;;;;;;;5114933;28;20450;-74
2022/11/01 06:17:20;;;;;;;3.60;1.87;;;;;;;;;;5114003;28;20462;-74
2022/11/01 06:19:47;;;;;;;4.67;2.10;;;;;;;;;;5114837;28;20444;-73
2022/11/01 06:22:16;;;;;;;2.60;1.17;;;;;;;;;;5113781;28;20458;-73
2022/11/01 06:24:43;;;;;;;3.50;1.53;;;;;;;;;;5114675;28;20448;-73
2022/11/01 06:27:10;;;;;;;2.17;1.40;;;;;;;;;;5113070;28;20965;-73
2022/11/01 06:29:37;;;;;;;2.43;1.00;;;;;;;;;;5114353;28;20455;-73
2022/11/01 06:32:05;;;;;;;3.47;1.23;;;;;;;;;;5113920;28;20486;-73
2022/11/01 06:34:32;;;;;;;2.53;1.43;;;;;;;;;;5113244;28;20466;-73
2022/11/01 06:36:59;;;;;;;1.70;1.20;;;;;;;;;;5113816;28;20444;-73
2022/11/01 06:39:28;;;;;;;1.70;1.10;;;;;;;;;;5113923;28;20535;-73
2022/11/01 06:41:55;;;;;;;1.57;1.47;;;;;;;;;;5114344;28;20459;-73
2022/11/01 06:44:23;;;;;;;0.90;0.70;;;;;;;;;;5114042;28;20455;-73
2022/11/01 06:46:50;;;;;;;1.40;1.10;;;;;;;;;;5113231;28;20961;-73
2022/11/01 06:49:17;;;;;;;1.73;1.10;;;;;;;;;;5108656;28;20472;-73
2022/11/01 06:51:45;;;;;;;0.80;0.70;;;;;;;;;;5113410;28;20581;-73
2022/11/01 06:54:12;;;;;;;1.93;1.03;;;;;;;;;;5113617;28;20454;-73
2022/11/01 06:56:40;;;;;;;1.67;1.10;;;;;;;;;;5113700;28;20821;-73
2022/11/01 06:59:08;;;;;;;2.00;1.77;;;;;;;;;;5113433;28;20439;-73
2022/11/01 07:01:35;;;;;;;1.60;0.90;;;;;;;;;;5115592;27;20775;-73
2022/11/01 07:04:02;;;;;;;1.63;1.00;;;;;;;;;;5117213;27;20448;-73
2022/11/01 07:06:29;;;;;;;1.73;1.20;;;;;;;;;;5113427;28;20955;-74
2022/11/01 07:08:57;;;;;;;1.43;0.80;;;;;;;;;;5113155;28;20463;-73
2022/11/01 07:11:24;;;;;;;1.90;0.90;;;;;;;;;;5112599;28;20476;-73
2022/11/01 07:13:53;;;;;;;1.30;0.93;;;;;;;;;;5113171;28;20448;-73
2022/11/01 07:16:20;;;;;;;2.47;1.40;;;;;;;;;;5112983;28;20464;-74
2022/11/01 07:18:47;;;;;;;1.50;1.00;;;;;;;;;;5112738;28;20440;-73
2022/11/01 07:21:14;;;;;;;2.20;1.00;;;;;;;;;;5112825;28;20455;-73
2022/11/01 07:23:41;;;;;;;1.10;0.80;;;;;;;;;;5113216;28;20440;-73
2022/11/01 07:26:08;;;;;;;1.37;0.80;;;;;;;;;;5112759;28;20447;-74
2022/11/01 07:28:36;;;;;;;3.47;1.10;;;;;;;;;;5112756;28;20448;-73
2022/11/01 07:31:05;;;;;;;1.53;1.13;;;;;;;;;;5112666;28;20455;-73
2022/11/01 07:33:32;;;;;;;1.77;1.20;;;;;;;;;;5113181;28;20439;-73
2022/11/01 07:35:59;;;;;;;1.37;1.20;;;;;;;;;;5112626;28;20456;-73
2022/11/01 07:38:26;;;;;;;1.03;0.70;;;;;;;;;;5112262;28;20448;-73
2022/11/01 07:40:54;;;;;;;2.50;1.27;;;;;;;;;;5112890;28;20452;-73
2022/11/01 07:43:21;;;;;;;2.70;0.97;;;;;;;;;;5111952;28;20451;-74
2022/11/01 07:45:48;;;;;;;1.17;0.80;;;;;;;;;;5112269;28;20931;-73
2022/11/01 07:48:17;;;;;;;4.03;0.80;;;;;;;;;;5111739;28;20455;-73
2022/11/01 07:50:45;;;;;;;0.90;0.70;;;;;;;;;;5112554;28;20472;-73
2022/11/01 07:53:13;;;;;;;2.10;0.90;;;;;;;;;;5112137;28;20829;-73
2022/11/01 07:55:40;;;;;;;1.10;0.70;;;;;;;;;;5112684;28;20479;-73
2022/11/01 07:58:08;;;;;;;1.83;0.90;;;;;;;;;;5112061;28;20443;-73
2022/11/01 08:00:35;;;;;;;1.00;0.60;;;;;;;;;;5112337;28;20448;-73
2022/11/01 08:03:02;;;;;;;0.80;0.60;;;;;;;;;;5111749;28;20497;-73
2022/11/01 08:05:31;;;;;;;0.90;0.60;;;;;;;;;;5112715;28;20455;-73
2022/11/01 08:07:58;;;;;;;1.03;0.57;;;;;;;;;;5111839;28;21036;-73
2022/11/01 08:10:26;;;;;;;2.30;0.80;;;;;;;;;;5111868;28;20451;-73
2022/11/01 08:12:53;;;;;;;1.77;0.70;;;;;;;;;;5111829;28;20476;-73
2022/11/01 08:15:20;;;;;;;1.00;0.73;;;;;;;;;;5111496;28;20451;-74
2022/11/01 08:17:47;;;;;;;1.23;0.70;;;;;;;;;;5112191;28;20822;-73
2022/11/01 08:20:14;;;;;;;1.23;0.60;;;;;;;;;;5111876;28;20476;-73
2022/11/01 08:22:43;;;;;;;1.47;0.70;;;;;;;;;;5112460;28;20444;-74
2022/11/01 08:25:10;;;;;;;1.60;0.77;;;;;;;;;;5112213;28;20448;-73
2022/11/01 08:27:37;;;;;;;3.37;1.17;;;;;;;;;;5111621;28;20448;-74
2022/11/01 08:30:05;;;;;;;0.90;0.50;;;;;;;;;;5111236;28;20939;-73
2022/11/01 08:32:32;;;;;;;1.67;0.70;;;;;;;;;;5111600;28;20477;-74
2022/11/01 08:34:59;;;;;;;0.73;0.50;;;;;;;;;;5107331;28;20470;-75
2022/11/01 08:37:26;;;;;;;1.60;0.60;;;;;;;;;;5113263;28;20437;-75
2022/11/01 08:39:55;;;;;;;0.77;0.63;;;;;;;;;;5109597;28;20444;-74
2022/11/01 08:42:22;;;;;;;1.10;0.57;;;;;;;;;;5111215;28;20460;-74
2022/11/01 08:44:49;;;;;;;1.00;0.70;;;;;;;;;;5111196;28;20452;-74
2022/11/01 08:47:16;;;;;;;1.07;0.70;;;;;;;;;;5109390;28;20456;-74
2022/11/01 08:49:43;;;;;;;1.13;0.97;;;;;;;;;;5111346;28;20481;-74
2022/11/01 08:52:11;;;;;;;1.23;0.50;;;;;;;;;;5109973;28;20829;-74
2022/11/01 08:54:38;;;;;;;1.23;0.80;;;;;;;;;;5107556;28;20471;-74
2022/11/01 08:57:07;;;;;;;1.50;0.73;;;;;;;;;;5110014;28;20440;-74
2022/11/01 08:59:34;;;;;;;2.10;0.70;;;;;;;;;;5112089;28;20446;-74
2022/11/01 09:02:01;;;;;;;0.80;0.50;;;;;;;;;;5111125;28;21000;-72
2022/11/01 09:04:28;;;;;;;1.47;0.80;;;;;;;;;;5111761;28;20447;-74
2022/11/01 09:06:56;;;;;;;1.53;0.80;;;;;;;;;;5110992;28;20800;-74
2022/11/01 09:09:23;;;;;;;0.87;0.60;;;;;;;;;;5110754;28;20451;-74
2022/11/01 09:11:51;;;;;;;1.33;0.77;;;;;;;;;;5111628;28;20479;-74
2022/11/01 09:14:22;;;;;;;0.77;0.50;;;;;;;;;;5110807;28;20454;-74
2022/11/01 09:16:50;;;;;;;0.90;0.60;;;;;;;;;;5098701;28;20586;-74
2022/11/01 09:19:17;;;;;;;0.90;0.67;;;;;;;;;;5111152;28;20467;-74
2022/11/01 09:21:44;;;;;;;1.00;0.60;;;;;;;;;;5111463;28;20497;-74
2022/11/01 09:24:11;;;;;;;0.80;0.57;;;;;;;;;;5110632;28;20444;-74
2022/11/01 09:26:38;;;;;;;1.30;1.00;;;;;;;;;;5111121;28;20455;-74
2022/11/01 09:29:05;;;;;;;0.97;0.80;;;;;;;;;;5111161;28;20448;-74
2022/11/01 09:31:34;;;;;;;2.00;0.80;;;;;;;;;;5111068;28;20447;-74
2022/11/01 09:34:02;;;;;;;1.53;0.93;;;;;;;;;;5110934;28;20962;-73
2022/11/01 09:36:29;;;;;;;0.90;0.57;;;;;;;;;;5111010;28;20870;-73
2022/11/01 09:38:58;;;;;;;0.87;0.60;;;;;;;;;;5111478;28;20440;-74
2022/11/01 09:41:28;;;;;;;1.27;0.50;;;;;;;;;;5110918;28;20455;-74
2022/11/01 09:43:56;;;;;;;1.47;0.83;;;;;;;;;;5111213;28;20497;-74
2022/11/01 09:46:25;;;;;;;0.90;0.50;;;;;;;;;;5110854;28;20455;-74
2022/11/01 09:48:54;;;;;;;0.90;0.60;;;;;;;;;;5110781;28;20447;-74
2022/11/01 09:51:23;;;;;;;0.70;0.50;;;;;;;;;;5110408;28;20455;-74
2022/11/01 09:53:51;;;;;;;1.00;0.60;;;;;;;;;;5110622;28;21002;-74
2022/11/01 09:56:23;;;;;;;0.80;0.60;;;15.10;99.90;;;;;;5110517;28;20451;-74
2022/11/01 09:58:55;;;;;;;1.57;0.60;;;;;;;;;;5111039;28;20447;-74
2022/11/01 10:01:37;;;;;;;0.90;0.60;;;18.10;99.90;;;;;;5110457;28;20454;-74
2022/11/01 10:04:28;;;;;;;0.80;0.60;;;18.20;1.00;;;;;;5110914;28;20432;-74
2022/11/01 10:07:02;;;;;;;0.70;0.50;;;18.30;99.90;;;;;;5110256;28;20451;-74
2022/11/01 10:09:38;;;;;;;1.97;0.63;;;18.30;99.90;;;;;;5115027;28;20497;-74
2022/11/01 10:12:29;;;;;;;1.03;0.73;;;18.40;1.00;;;;;;5113807;28;20471;-74
2022/11/01 10:15:07;;;;;;;1.53;0.53;;;18.50;99.90;;;;;;5114996;28;20453;-74
2022/11/01 10:17:49;;;;;;;1.10;0.67;;;18.50;9.30;;;;;;5113594;28;20454;-74
2022/11/01 10:20:19;;;;;;;1.07;0.60;;;18.60;56.20;;;;;;5113739;28;20450;-74
2022/11/01 10:22:49;;;;;;;1.03;0.70;;;18.60;1.00;;;;;;5114590;28;20530;-74
2022/11/01 10:25:20;;;;;;;1.10;0.70;;;18.50;1.00;;;;;;5113308;28;20444;-74
2022/11/01 10:27:55;;;;;;;0.93;0.70;;;18.60;1.00;;;;;;5114172;28;20460;-74
2022/11/01 10:30:22;;;;;;;0.90;0.60;;;18.50;99.90;;;;;;5113908;28;20853;-74
2022/11/01 10:32:54;;;;;;;1.07;0.60;;;18.50;1.00;;;;;;5114208;28;21086;-74
2022/11/01 10:35:27;;;;;;;0.87;0.50;;;18.60;99.90;;;;;;5113677;28;20722;-74
2022/11/01 10:38:00;;;;;;;1.23;1.10;;;18.60;99.90;;;;;;5111261;28;20447;-74
2022/11/01 10:40:33;;;;;;;1.57;0.97;;;18.70;99.90;;;;;;5113653;28;20470;-73
2022/11/01 10:43:01;;;;;;;1.00;0.80;;;18.70;99.90;;;;;;5113698;28;20436;-74
2022/11/01 10:45:28;;;;;;;0.90;0.60;;;18.80;1.00;;;;;;5110225;28;20468;-72
2022/11/01 10:47:57;;;;;;;1.10;0.60;;;18.70;1.00;;;;;;5113920;28;20441;-75
2022/11/01 10:50:28;;;;;;;2.17;0.70;;;18.60;1.00;;;;;;5112987;28;20475;-71
2022/11/01 10:52:59;;;;;;;2.50;0.60;;;18.50;1.00;;;;;;5113784;28;20475;-72
2022/11/01 10:55:30;;;;;;;0.80;0.60;;;18.50;1.00;;;;;;5113843;28;20444;-71
2022/11/01 10:58:01;;;;;;;1.30;0.60;;;18.50;1.00;;;;;;5105068;28;20454;-72
2022/11/01 11:00:31;;;;;;;1.60;0.60;;;18.40;54.90;;;;;;5113692;28;20448;-74
2022/11/01 11:03:03;;;;;;;0.80;0.60;;;18.40;1.00;;;;;;5128411;27;20872;-73
2022/11/01 11:05:32;;;;;;;1.13;0.60;;;18.40;1.00;;;;;;5113249;28;20472;-76
2022/11/01 11:08:03;;;;;;;1.33;0.80;;;18.40;1.00;;;;;;5112844;28;20450;-75
2022/11/01 11:10:30;;;;;;;1.13;0.60;;;18.40;1.00;;;;;;5113105;28;20444;-73
2022/11/01 11:13:00;;;;;;;2.77;0.63;;;18.40;1.00;;;;;;5113497;28;20471;-73
2022/11/01 11:15:39;;;;;;;1.47;0.93;;;18.50;1.00;;;;;;5112155;28;20460;-74
2022/11/01 11:18:14;;;;;;;0.90;0.60;;;18.40;1.00;;;;;;5112370;28;20440;-73
2022/11/01 11:20:43;;;;;;;1.00;0.80;;;18.50;1.00;;;;;;5112786;28;20447;-74
2022/11/01 11:23:11;;;;;;;0.77;0.53;;;18.60;1.00;;;;;;5112360;28;20439;-74
2022/11/01 11:25:40;;;;;;;0.70;0.50;;;18.60;1.00;;;;;;5113630;28;20858;-73
2022/11/01 11:28:15;;;;;;;1.33;0.80;;;18.70;1.00;;;;;;5104240;28;20505;-73
2022/11/01 11:30:42;;;;;;;0.97;0.70;;;18.70;1.00;;;;;;5112791;28;20805;-75
2022/11/01 11:33:16;;;;;;;2.90;1.40;;;18.90;1.00;;;;;;5111619;28;20486;-73
2022/11/01 11:35:55;;;;;;;1.97;0.90;;;19.00;1.00;;;;;;5112852;28;20432;-74
2022/11/01 11:38:41;;;;;;;0.80;0.60;;;19.00;99.90;;;;;;5111351;28;20432;-74
2022/11/01 11:41:10;;;;;;;1.00;0.80;;;19.00;99.90;;;;;;5098086;28;20797;-74
2022/11/01 11:43:40;;;;;;;0.87;0.60;;;19.10;99.90;;;;;;5107489;28;20487;-75
2022/11/01 11:46:13;;;;;;;0.60;0.43;;;19.00;99.90;;;;;;5112429;28;20841;-75
2022/11/01 11:48:47;;;;;;;0.73;0.60;;;18.80;99.90;;;;;;5112167;28;20537;-74
2022/11/01 11:51:15;;;;;;;1.30;0.77;;;18.80;99.90;;;;;;5106867;28;20824;-75
2022/11/01 11:53:42;;;;;;;1.20;0.80;;;18.60;99.90;;;;;;5111857;28;20478;-73
2022/11/01 11:56:10;;;;;;;1.77;0.83;;;18.70;99.90;;;;;;5109746;28;20801;-72
2022/11/01 11:58:41;;;;;;;1.10;0.90;;;18.60;99.90;;;;;;5112762;28;20531;-72
2022/11/01 12:01:11;;;;;;;1.47;0.53;;;18.50;99.90;;;;;;5112480;28;20435;-72
2022/11/01 12:03:46;;;;;;;1.50;0.80;;;18.60;99.90;;;;;;5112408;28;20444;-71
2022/11/01 12:06:19;;;;;;;1.30;0.67;;;18.70;99.90;;;;;;5111837;28;20504;-71
2022/11/01 12:08:47;;;;;;;2.00;0.80;;;18.50;99.90;;;;;;5112778;28;20465;-71
2022/11/01 12:11:15;;;;;;;1.43;0.80;;;18.50;99.90;;;;;;5103541;28;20444;-73
2022/11/01 12:13:44;;;;;;;0.87;0.60;;;18.60;99.90;;;;;;5112263;28;20476;-73
2022/11/01 12:16:20;;;;;;;1.20;0.80;;;18.50;99.90;;;;;;5111696;28;20464;-72
2022/11/01 12:18:49;;;;;;;2.43;1.47;;;18.50;99.90;;;;;;5108169;28;20827;-73
2022/11/01 12:21:21;;;;;;;1.10;0.70;;;18.60;99.90;;;;;;5106896;28;20546;-74
2022/11/01 12:23:51;;;;;;;1.13;0.77;;;18.60;99.90;;;;;;5110248;28;20448;-74
2022/11/01 12:26:21;;;;;;;1.37;0.80;;;18.50;99.90;;;;;;5109017;28;20775;-73
2022/11/01 12:28:58;;;;;;;1.33;0.80;;;18.40;99.90;;;;;;5109818;28;20447;-74
2022/11/01 12:31:26;;;;;;;0.80;0.60;;;18.50;99.90;;;;;;5108825;28;20540;-74
2022/11/01 12:33:58;;;;;;;0.90;0.70;;;18.40;99.90;;;;;;5110216;28;20487;-74
2022/11/01 12:36:30;;;;;;;0.83;0.47;;;18.50;99.90;;;;;;5110365;28;20440;-74
2022/11/01 12:39:02;;;;;;;1.17;0.80;;;18.60;99.90;;;;;;5110209;28;20442;-73
2022/11/01 12:41:34;;;;;;;1.03;0.77;;;18.60;99.90;;;;;;5110580;28;20451;-73
2022/11/01 12:44:20;;;;;;;1.40;0.80;;;18.60;99.90;;;;;;5117582;28;20477;-75
2022/11/01 12:46:51;;;;;;;3.03;1.37;;;18.20;1.00;;;;;;5114682;28;20474;-73
2022/11/01 12:49:30;;;;;;;3.73;1.70;;;18.10;99.90;;;;;;5109224;28;20476;-74
2022/11/01 12:52:05;;;;;;;1.90;0.83;;;18.10;99.90;;;;;;5109381;28;20461;-73
2022/11/01 12:54:37;;;;;;;1.70;0.87;;;17.80;99.90;;;;;;5109391;28;20478;-73
2022/11/01 12:57:12;;;;;;;2.50;1.13;;;17.70;1.00;;;;;;5108626;28;20461;-73
2022/11/01 12:59:39;;;;;;;1.97;0.83;;;17.60;1.00;;;;;;5109378;28;20447;-73
2022/11/01 13:02:26;;;;;;;3.07;0.87;;;17.50;1.00;;;;;;5111985;27;20447;-73
2022/11/01 13:05:00;;;;;;;1.67;0.90;;;17.50;99.90;;;;;;5113423;27;20477;-73
2022/11/01 13:07:39;;;;;;;1.90;1.00;;;17.50;99.90;;;;;;5108856;28;20469;-73
2022/11/01 13:10:14;;;;;;;0.90;0.70;;;17.60;99.90;;;;;;5109187;28;20448;-73
2022/11/01 13:12:50;;;;;;;1.70;0.83;;;17.50;99.90;;;;;;5106397;28;20458;-75
2022/11/01 13:15:23;;;;;;;1.40;1.27;;;17.50;99.90;;;;;;5100912;28;20470;-73
2022/11/01 13:17:57;;;;;;;2.27;1.00;;;17.50;1.00;;;;;;5108684;28;20530;-74
2022/11/01 13:20:33;;;;;;;2.80;0.93;;;17.60;99.90;;;;;;5107856;28;20784;-74
2022/11/01 13:23:13;;;;;;;2.10;1.10;;;17.70;99.90;;;;;;5108463;28;20442;-74
2022/11/01 13:25:45;;;;;;;1.30;1.00;;;17.70;99.90;;;;;;5109206;28;20453;-74
2022/11/01 13:28:27;;;;;;;1.90;0.90;;;17.60;99.90;;;;;;5104219;28;20953;-76
2022/11/01 13:31:01;;;;;;;1.53;1.20;;;17.60;99.90;;;;;;5108848;28;20443;-76
2022/11/01 13:33:35;;;;;;;4.63;0.93;;;17.50;99.90;;;;;;5107999;28;20819;-73
2022/11/01 13:36:11;;;;;;;1.00;0.80;;;17.50;99.90;;;;;;5108474;28;20436;-73
2022/11/01 13:38:45;;;;;;;1.37;1.07;;;17.40;99.90;;;;;;5109007;28;20447;-73
2022/11/01 13:41:22;;;;;;;3.47;1.23;;;17.50;99.90;;;;;;5108390;28;20438;-74